Time;durP1;ratioP1;P1;durP2;ratioP2;P2;SDS_P1;SDS_P2;PMS_P1;PMS_P2;Temp;Humidity;BMP_temperature;BMP_pressure;BME280_temperature;BME280_humidity;BME280_pressure;Samples;Min_cycle;Max_cycle;Signal;HPM_P1;HPM_P2
2023/06/17 00:02:16;;;;;;;22.37;19.37;;;;;;;;;;5078305;28;20438;-80
2023/06/17 00:04:42;;;;;;;24.33;20.90;;;;;;;;;;5081932;28;20433;-82
2023/06/17 00:07:08;;;;;;;22.87;20.27;;;;;;;;;;5086028;28;20441;-81
2023/06/17 00:09:35;;;;;;;21.57;19.27;;;;;;;;;;5090229;28;20485;-82
2023/06/17 00:12:03;;;;;;;31.40;22.53;;;;;;;;;;5075235;28;20966;-80
2023/06/17 00:14:29;;;;;;;24.83;21.50;;;;;;;;;;5081977;28;20454;-82
2023/06/17 00:16:59;;;;;;;25.70;22.10;;;;;;;;;;5090610;28;20497;-81
2023/06/17 00:19:27;;;;;;;23.70;20.17;;;;;;;;;;5084306;28;20447;-81
2023/06/17 00:21:54;;;;;;;22.70;20.37;;;;;;;;;;5081192;28;20452;-80
2023/06/17 00:24:20;;;;;;;25.03;21.40;;;;;;;;;;5088528;28;20529;-80
2023/06/17 00:26:47;;;;;;;29.27;21.83;;;;;;;;;;5090098;28;20477;-82
2023/06/17 00:29:15;;;;;;;27.00;23.97;;;;;;;;;;5084517;28;21000;-80
2023/06/17 00:31:41;;;;;;;24.87;22.13;;;;;;;;;;5078835;28;20883;-82
2023/06/17 00:34:08;;;;;;;28.27;22.67;;;;;;;;;;5081014;28;20500;-82
2023/06/17 00:36:34;;;;;;;23.83;21.37;;;;;;;;;;5076912;28;20475;-82
2023/06/17 00:39:01;;;;;;;26.37;20.67;;;;;;;;;;5088361;28;20867;-81
2023/06/17 00:41:28;;;;;;;22.40;20.13;;;;;;;;;;5086894;28;20462;-82
2023/06/17 00:43:55;;;;;;;22.93;19.57;;;;;;;;;;5083916;28;20908;-82
2023/06/17 00:46:28;;;;;;;29.00;19.67;;;;;;;;;;5077316;28;20433;-82
2023/06/17 00:48:55;;;;;;;20.63;18.53;;;;;;;;;;5070816;28;20894;-82
2023/06/17 00:51:21;;;;;;;21.30;18.33;;;;;;;;;;5075191;28;20471;-81
2023/06/17 00:53:48;;;;;;;21.23;17.77;;;;;;;;;;5072927;28;20421;-81
2023/06/17 00:56:17;;;;;;;21.50;19.20;;;;;;;;;;5073967;28;20482;-81
2023/06/17 00:58:45;;;;;;;23.23;19.00;;;;;;;;;;5085159;28;20468;-81
2023/06/17 01:01:12;;;;;;;28.37;19.60;;;;;;;;;;5085656;28;20479;-81
2023/06/17 01:03:40;;;;;;;26.80;19.80;;;;;;;;;;5083935;28;20416;-82
2023/06/17 01:06:11;;;;;;;26.63;19.70;;;;;;;;;;5081508;28;20445;-82
2023/06/17 01:08:42;;;;;;;24.50;20.83;;;;;;;;;;5078399;28;20581;-82
2023/06/17 01:11:10;;;;;;;32.53;23.07;;;;;;;;;;5075653;28;20449;-81
2023/06/17 01:13:37;;;;;;;29.87;21.97;;;;;;;;;;5077020;28;20430;-82
2023/06/17 01:16:04;;;;;;;33.20;24.40;;;;;;;;;;5076253;28;20466;-81
2023/06/17 01:18:32;;;;;;;44.23;23.80;;;;;;;;;;5076585;28;20464;-81
2023/06/17 01:21:03;;;;;;;30.63;23.43;;;;;;;;;;5088662;28;20463;-81
2023/06/17 01:23:31;;;;;;;29.33;23.93;;;;;;;;;;5076794;28;20533;-81
2023/06/17 01:26:01;;;;;;;30.23;23.30;;;;;;;;;;5080871;28;20459;-81
2023/06/17 01:28:29;;;;;;;31.90;24.87;;;;;;;;;;5079635;28;20988;-81
2023/06/17 01:30:56;;;;;;;34.90;26.03;;;;;;;;;;5075283;28;20882;-81
2023/06/17 01:33:23;;;;;;;33.37;24.97;;;;;;;;;;5078883;28;20476;-81
2023/06/17 01:35:53;;;;;;;30.83;24.07;;;;;;;;;;5071274;28;20425;-81
2023/06/17 01:38:21;;;;;;;35.37;23.43;;;;;;;;;;5069200;28;20430;-81
2023/06/17 01:40:51;;;;;;;28.93;22.40;;;;;;;;;;5083910;28;20459;-81
2023/06/17 01:43:19;;;;;;;28.07;22.33;;;;;;;;;;5080532;28;20466;-81
2023/06/17 01:45:47;;;;;;;32.93;24.60;;;;;;;;;;5079448;28;20494;-81
2023/06/17 01:48:14;;;;;;;28.33;23.20;;;;;;;;;;5074447;28;20501;-81
2023/06/17 01:50:40;;;;;;;30.70;24.07;;;;;;;;;;5076284;28;20439;-81
2023/06/17 01:53:06;;;;;;;30.97;24.17;;;;;;;;;;5084945;28;20932;-81
2023/06/17 01:55:33;;;;;;;33.93;24.97;;;;;;;;;;5075981;28;20426;-81
2023/06/17 01:57:59;;;;;;;33.17;26.37;;;;;;;;;;5070178;28;20478;-81
2023/06/17 02:00:27;;;;;;;30.90;24.40;;;;;;;;;;5078507;28;20409;-81
2023/06/17 02:02:54;;;;;;;28.40;22.20;;;;;;;;;;5087653;28;20435;-81
2023/06/17 02:05:20;;;;;;;30.77;23.30;;;;;;;;;;5082032;28;20432;-81
2023/06/17 02:07:47;;;;;;;36.90;23.60;;;;;;;;;;5086798;28;20482;-81
2023/06/17 02:10:13;;;;;;;32.40;24.60;;;;;;;;;;5085464;28;20475;-81
2023/06/17 02:12:40;;;;;;;33.67;24.70;;;;;;;;;;5080488;28;21089;-81
2023/06/17 02:15:08;;;;;;;35.73;23.87;;;;;;;;;;5081564;28;20927;-81
2023/06/17 02:17:36;;;;;;;30.67;23.60;;;;;;;;;;5080014;28;20520;-81
2023/06/17 02:20:04;;;;;;;28.50;20.93;;;;;;;;;;5077694;28;20430;-80
2023/06/17 02:22:30;;;;;;;32.03;23.07;;;;;;;;;;5078151;28;20437;-81
2023/06/17 02:24:56;;;;;;;28.87;23.00;;;;;;;;;;5083648;28;20428;-81
2023/06/17 02:27:23;;;;;;;29.50;22.20;;;;;;;;;;5069970;28;20453;-81
2023/06/17 02:29:49;;;;;;;28.30;21.90;;;;;;;;;;5074382;28;20486;-81
2023/06/17 02:32:16;;;;;;;28.63;20.07;;;;;;;;;;5078082;28;20974;-81
2023/06/17 02:34:48;;;;;;;27.83;21.20;;;;;;;;;;5077602;28;20808;-81
2023/06/17 02:37:14;;;;;;;28.10;21.57;;;;;;;;;;5078664;28;20872;-81
2023/06/17 02:39:40;;;;;;;31.67;21.67;;;;;;;;;;5076985;28;20931;-81
2023/06/17 02:42:08;;;;;;;26.73;20.77;;;;;;;;;;5075957;28;20451;-81
2023/06/17 02:44:35;;;;;;;29.90;21.37;;;;;;;;;;5084729;28;20941;-81
2023/06/17 02:47:02;;;;;;;25.13;21.07;;;;;;;;;;5076406;28;20491;-81
2023/06/17 02:49:28;;;;;;;29.47;23.00;;;;;;;;;;5062818;28;20489;-82
2023/06/17 02:51:57;;;;;;;27.20;20.47;;;;;;;;;;5086363;28;20858;-81
2023/06/17 02:54:24;;;;;;;28.73;21.30;;;;;;;;;;5086227;28;20438;-81
2023/06/17 02:56:50;;;;;;;29.90;21.60;;;;;;;;;;5076460;28;20449;-81
2023/06/17 02:59:16;;;;;;;26.53;20.67;;;;;;;;;;5073179;28;20406;-81
2023/06/17 03:01:43;;;;;;;26.27;20.60;;;;;;;;;;5087141;28;20486;-81
2023/06/17 03:04:10;;;;;;;27.87;21.77;;;;;;;;;;5074358;28;20500;-81
2023/06/17 03:06:36;;;;;;;27.17;22.10;;;;;;;;;;5073186;28;20463;-81
2023/06/17 03:09:05;;;;;;;27.30;22.30;;;;;;;;;;5079411;28;20441;-81
2023/06/17 03:11:31;;;;;;;32.43;20.93;;;;;;;;;;5072114;28;20450;-81
2023/06/17 03:13:57;;;;;;;29.80;21.07;;;;;;;;;;5076130;28;20463;-81
2023/06/17 03:16:25;;;;;;;27.30;21.00;;;;;;;;;;5080449;28;20831;-81
2023/06/17 03:18:52;;;;;;;26.30;21.67;;;;;;;;;;5077913;28;20449;-81
2023/06/17 03:21:18;;;;;;;26.30;19.00;;;;;;;;;;5081090;28;20470;-81
2023/06/17 03:23:45;;;;;;;26.47;21.50;;;;;;;;;;5083032;28;21384;-81
2023/06/17 03:26:13;;;;;;;32.20;23.57;;;;;;;;;;5078387;28;20441;-81
2023/06/17 03:28:39;;;;;;;32.30;24.10;;;;;;;;;;5076998;28;20478;-80
2023/06/17 03:31:06;;;;;;;28.60;22.10;;;;;;;;;;5085026;28;20445;-81
2023/06/17 03:33:32;;;;;;;30.97;23.93;;;;;;;;;;5080461;28;20421;-81
2023/06/17 03:35:59;;;;;;;33.90;23.73;;;;;;;;;;5071684;28;20448;-81
2023/06/17 03:38:26;;;;;;;30.20;24.60;;;;;;;;;;5079458;28;20464;-81
2023/06/17 03:40:52;;;;;;;38.60;26.67;;;;;;;;;;5074399;28;20446;-81
2023/06/17 03:43:20;;;;;;;35.33;25.40;;;;;;;;;;5074004;28;20783;-81
2023/06/17 03:45:47;;;;;;;31.20;22.50;;;;;;;;;;5075562;28;20437;-81
2023/06/17 03:48:13;;;;;;;30.77;22.80;;;;;;;;;;5073085;28;20846;-81
2023/06/17 03:50:40;;;;;;;33.33;22.50;;;;;;;;;;5081101;28;20787;-81
2023/06/17 03:53:08;;;;;;;25.10;20.47;;;;;;;;;;5086020;28;20464;-81
2023/06/17 03:55:36;;;;;;;29.57;20.67;;;;;;;;;;5078384;28;20463;-81
2023/06/17 03:58:02;;;;;;;29.83;21.43;;;;;;;;;;5084198;28;20524;-81
2023/06/17 04:00:31;;;;;;;27.40;22.13;;;;;;;;;;5069226;28;20461;-81
2023/06/17 04:02:58;;;;;;;27.37;20.30;;;;;;;;;;5080098;28;20450;-81
2023/06/17 04:05:31;;;;;;;25.60;20.30;;;;;;;;;;5076515;28;21051;-81
2023/06/17 04:07:58;;;;;;;28.80;21.27;;;;;;;;;;5078172;28;20438;-81
2023/06/17 04:10:25;;;;;;;34.80;21.10;;;;;;;;;;5079934;28;20540;-81
2023/06/17 04:12:51;;;;;;;25.33;19.40;;;;;;;;;;5070804;28;20466;-81
2023/06/17 04:15:18;;;;;;;25.97;21.77;;;;;;;;;;5075299;28;20409;-81
2023/06/17 04:17:46;;;;;;;27.90;22.30;;;;;;;;;;5076685;28;20435;-81
2023/06/17 04:20:12;;;;;;;29.47;21.70;;;;;;;;;;5078469;28;20420;-81
2023/06/17 04:22:40;;;;;;;29.43;22.43;;;;;;;;;;5084682;28;20471;-81
2023/06/17 04:25:07;;;;;;;25.60;20.57;;;;;;;;;;5080215;28;20791;-81
2023/06/17 04:27:33;;;;;;;31.20;20.03;;;;;;;;;;5074121;28;20623;-80
2023/06/17 04:30:01;;;;;;;35.93;20.63;;;;;;;;;;5078256;28;20995;-81
2023/06/17 04:32:28;;;;;;;29.63;22.37;;;;;;;;;;5084301;28;20479;-81
2023/06/17 04:34:56;;;;;;;28.77;21.87;;;;;;;;;;5076927;28;20458;-80
2023/06/17 04:37:23;;;;;;;24.70;19.90;;;;;;;;;;5076234;28;20906;-81
2023/06/17 04:39:52;;;;;;;29.13;20.83;;;;;;;;;;5084440;28;20430;-81
2023/06/17 04:42:19;;;;;;;28.13;20.73;;;;;;;;;;5076475;28;20474;-81
2023/06/17 04:44:48;;;;;;;30.80;19.83;;;;;;;;;;5082140;28;20528;-81
2023/06/17 04:47:16;;;;;;;30.80;21.47;;;;;;;;;;5077609;28;20457;-81
2023/06/17 04:49:44;;;;;;;33.63;23.80;;;;;;;;;;5081802;28;20486;-81
2023/06/17 04:52:12;;;;;;;28.90;20.60;;;;;;;;;;5086220;28;20516;-81
2023/06/17 04:54:38;;;;;;;33.13;24.97;;;;;;;;;;5083222;28;20432;-81
2023/06/17 04:57:06;;;;;;;32.50;27.37;;;;;;;;;;5082533;28;20485;-81
2023/06/17 04:59:33;;;;;;;29.50;21.70;;;;;;;;;;5081765;28;20434;-80
2023/06/17 05:01:59;;;;;;;34.80;23.97;;;;;;;;;;5085204;28;20974;-81
2023/06/17 05:04:26;;;;;;;36.20;25.40;;;;;;;;;;5077501;28;20521;-81
2023/06/17 05:06:52;;;;;;;38.73;24.20;;;;;;;;;;5075921;28;20493;-81
2023/06/17 05:09:20;;;;;;;35.77;23.50;;;;;;;;;;5078950;28;20447;-81
2023/06/17 05:11:46;;;;;;;29.03;24.17;;;;;;;;;;5080027;28;20528;-81
2023/06/17 05:14:13;;;;;;;31.30;23.40;;;;;;;;;;5089194;28;20421;-81
2023/06/17 05:16:41;;;;;;;31.30;23.10;;;;;;;;;;5080599;28;20491;-81
2023/06/17 05:19:08;;;;;;;31.70;23.00;;;;;;;;;;5079652;28;20457;-81
2023/06/17 05:21:34;;;;;;;33.47;24.50;;;;;;;;;;5075405;28;20445;-81
2023/06/17 05:24:01;;;;;;;35.00;25.27;;;;;;;;;;5082061;28;20421;-81
2023/06/17 05:26:30;;;;;;;33.37;22.23;;;;;;;;;;5077039;28;20813;-80
2023/06/17 05:28:57;;;;;;;24.30;20.90;;;;;;;;;;5075724;28;20486;-81
2023/06/17 05:31:23;;;;;;;27.40;21.03;;;;;;;;;;5083942;28;20570;-81
2023/06/17 05:33:49;;;;;;;28.73;22.07;;;;;;;;;;5073070;28;20923;-81
2023/06/17 05:36:15;;;;;;;28.60;22.30;;;;;;;;;;5074687;28;20445;-81
2023/06/17 05:38:42;;;;;;;28.20;21.80;;;;;;;;;;5081283;28;20463;-81
2023/06/17 05:41:08;;;;;;;25.90;20.87;;;;;;;;;;5078708;28;20445;-82
2023/06/17 05:43:36;;;;;;;26.23;21.27;;;;;;;;;;5074631;28;20840;-81
2023/06/17 05:46:02;;;;;;;30.00;21.40;;;;;;;;;;5070885;28;20985;-82
2023/06/17 05:48:29;;;;;;;30.77;22.70;;;;;;;;;;5079054;28;20482;-81
2023/06/17 05:50:55;;;;;;;28.23;22.47;;;;;;;;;;5083174;28;20466;-81
2023/06/17 05:53:21;;;;;;;30.37;20.97;;;;;;;;;;5089149;28;20813;-81
2023/06/17 05:55:48;;;;;;;26.50;20.47;;;;;;;;;;5073633;28;20463;-81
2023/06/17 05:58:15;;;;;;;27.60;19.03;;;;;;;;;;5088607;28;20447;-81
2023/06/17 06:00:44;;;;;;;25.23;18.40;;;;;;;;;;5078891;28;20429;-82
2023/06/17 06:03:10;;;;;;;27.13;17.67;;;;;;;;;;5073013;28;20482;-81
2023/06/17 06:05:37;;;;;;;25.13;19.70;;;;;;;;;;5067912;28;20459;-81
2023/06/17 06:08:03;;;;;;;26.50;18.03;;;;;;;;;;5076335;28;20850;-81
2023/06/17 06:10:30;;;;;;;27.10;19.47;;;;;;;;;;5075658;28;20482;-81
2023/06/17 06:12:56;;;;;;;23.63;17.67;;;;;;;;;;5077992;28;20443;-81
2023/06/17 06:15:25;;;;;;;27.70;19.20;;;;;;;;;;5079253;28;20433;-81
2023/06/17 06:17:53;;;;;;;23.57;18.20;;;;;;;;;;5074775;28;20561;-81
2023/06/17 06:20:19;;;;;;;28.77;18.37;;;;;;;;;;5074827;28;20454;-81
2023/06/17 06:22:46;;;;;;;20.73;16.67;;;;;;;;;;5077777;28;20516;-82
2023/06/17 06:25:12;;;;;;;20.80;18.57;;;;;;;;;;5078304;28;20459;-81
2023/06/17 06:27:38;;;;;;;27.10;19.23;;;;;;;;;;5077948;28;20837;-81
2023/06/17 06:30:06;;;;;;;22.23;18.30;;;;;;;;;;5071977;28;20440;-81
2023/06/17 06:32:32;;;;;;;21.10;17.03;;;;;;;;;;5072024;28;20478;-81
2023/06/17 06:35:00;;;;;;;23.03;17.33;;;;;;;;;;5075984;28;20465;-81
2023/06/17 06:37:26;;;;;;;27.50;19.07;;;;;;;;;;5072976;28;20485;-81
2023/06/17 06:39:53;;;;;;;23.70;16.93;;;;;;;;;;5074533;28;20477;-81
2023/06/17 06:42:19;;;;;;;24.90;17.50;;;;;;;;;;5074495;28;20446;-81
2023/06/17 06:44:45;;;;;;;24.43;18.80;;;;;;;;;;5072088;28;20463;-80
2023/06/17 06:47:12;;;;;;;27.47;17.57;;;;;;;;;;5075101;28;20475;-82
2023/06/17 06:49:38;;;;;;;27.70;18.80;;;;;;;;;;5077758;28;20965;-81
2023/06/17 06:52:06;;;;;;;27.47;18.03;;;;;;;;;;5084671;28;21015;-81
2023/06/17 06:54:33;;;;;;;24.60;17.50;;;;;;;;;;5072909;28;20447;-82
2023/06/17 06:56:59;;;;;;;25.77;18.47;;;;;;;;;;5076493;28;20452;-82
2023/06/17 06:59:25;;;;;;;24.33;18.07;;;;;;;;;;5065897;28;20448;-81
2023/06/17 07:01:52;;;;;;;25.90;17.67;;;;;;;;;;5080136;28;20478;-81
2023/06/17 07:04:20;;;;;;;30.30;18.43;;;;;;;;;;5075658;28;20425;-80
2023/06/17 07:06:46;;;;;;;26.03;18.07;;;;;;;;;;5079887;28;20521;-82
2023/06/17 07:09:15;;;;;;;22.63;17.47;;;;;;;;;;5071775;28;20434;-82
2023/06/17 07:11:41;;;;;;;22.50;18.97;;;;;;;;;;5076788;28;20539;-81
2023/06/17 07:14:07;;;;;;;27.80;16.93;;;;;;;;;;5075494;28;20439;-81
2023/06/17 07:16:34;;;;;;;21.23;17.87;;;;;;;;;;5084334;28;20471;-81
2023/06/17 07:19:01;;;;;;;23.80;17.10;;;;;;;;;;5081091;28;20450;-81
2023/06/17 07:21:28;;;;;;;21.00;17.23;;;;;;;;;;5074753;28;20441;-81
2023/06/17 07:23:54;;;;;;;24.03;17.47;;;;;;;;;;5066610;28;20482;-81
2023/06/17 07:26:22;;;;;;;24.37;17.70;;;;;;;;;;5077471;28;20460;-81
2023/06/17 07:28:49;;;;;;;21.27;16.30;;;;;;;;;;5074329;28;20459;-81
2023/06/17 07:31:15;;;;;;;29.97;18.53;;;;;;;;;;5076851;28;20471;-81
2023/06/17 07:33:41;;;;;;;25.90;16.80;;;;;;;;;;5082727;28;20447;-81
2023/06/17 07:36:08;;;;;;;25.43;18.10;;;;;;;;;;5083523;28;20846;-79
2023/06/17 07:38:34;;;;;;;22.00;16.63;;;;;;;;;;5081599;28;20463;-80
2023/06/17 07:41:01;;;;;;;17.93;15.50;;;;;;;;;;5080011;28;20992;-80
2023/06/17 07:43:29;;;;;;;26.60;17.60;;;;;;;;;;5090167;28;20438;-80
2023/06/17 07:45:55;;;;;;;27.67;17.77;;;;;;;;;;5091971;28;20987;-80
2023/06/17 07:48:21;;;;;;;20.63;16.07;;;;;;;;;;5080888;28;20465;-80
2023/06/17 07:50:48;;;;;;;27.20;18.00;;;;;;;;;;5085191;28;20463;-80
2023/06/17 07:53:15;;;;;;;23.10;17.77;;;;;;;;;;5080839;28;20449;-80
2023/06/17 07:55:41;;;;;;;26.07;16.90;;;;;;;;;;5090226;28;20444;-80
2023/06/17 07:58:08;;;;;;;27.53;17.73;;;;;;;;;;5084177;28;20959;-80
2023/06/17 08:00:36;;;;;;;22.90;17.30;;;;;;;;;;5095541;28;20446;-80
2023/06/17 08:03:03;;;;;;;23.33;16.47;;;;;;;;;;5088175;28;20446;-80
2023/06/17 08:05:30;;;;;;;21.40;17.00;;;;;;;;;;5077067;28;20554;-80
2023/06/17 08:07:56;;;;;;;23.47;18.40;;;;;;;;;;5085871;28;20470;-81
2023/06/17 08:10:22;;;;;;;19.93;15.30;;;;;;;;;;5085351;28;20442;-82
2023/06/17 08:12:49;;;;;;;22.20;16.10;;;;;;;;;;5079273;28;20446;-80
2023/06/17 08:15:15;;;;;;;22.63;16.63;;;;;;;;;;5078819;28;20957;-81
2023/06/17 08:17:44;;;;;;;26.00;16.30;;;;;;;;;;5081355;28;20454;-81
2023/06/17 08:20:11;;;;;;;22.93;16.83;;;;;;;;;;5085065;28;20462;-81
2023/06/17 08:22:37;;;;;;;28.43;18.03;;;;;;;;;;5088194;28;20476;-82
2023/06/17 08:25:04;;;;;;;24.03;18.70;;;;;;;;;;5083890;28;20453;-82
2023/06/17 08:27:31;;;;;;;26.93;17.57;;;;;;;;;;5080087;28;20474;-81
2023/06/17 08:29:58;;;;;;;21.87;17.80;;;;;;;;;;5090311;28;20935;-81
2023/06/17 08:32:24;;;;;;;36.30;22.10;;;;;;;;;;5083434;28;20475;-81
2023/06/17 08:34:53;;;;;;;23.80;16.30;;;;;;;;;;5090486;28;20450;-81
2023/06/17 08:37:20;;;;;;;23.77;15.73;;;;;;;;;;5089964;28;20481;-81
2023/06/17 08:39:46;;;;;;;25.93;16.60;;;;;;;;;;5076901;28;20447;-81
2023/06/17 08:42:12;;;;;;;22.90;17.17;;;;;;;;;;5080708;28;21009;-81
2023/06/17 08:44:41;;;;;;;27.07;17.90;;;;;;;;;;5086953;28;20953;-81
2023/06/17 08:47:07;;;;;;;22.47;16.33;;;;;;;;;;5091130;28;20473;-80
2023/06/17 08:49:34;;;;;;;25.90;16.23;;;;;;;;;;5079912;28;20463;-81
2023/06/17 08:52:03;;;;;;;22.23;17.30;;;;;;;;;;5085030;28;20473;-81
2023/06/17 08:54:30;;;;;;;26.07;18.13;;;;;;;;;;5072683;28;20459;-81
2023/06/17 08:56:57;;;;;;;25.27;17.90;;;;;;;;;;5076217;28;20471;-81
2023/06/17 08:59:23;;;;;;;24.93;19.20;;;;;;;;;;5089865;28;20511;-81
2023/06/17 09:01:52;;;;;;;28.47;18.17;;;;;;;;;;5075840;28;20471;-81
2023/06/17 09:04:18;;;;;;;28.87;17.93;;;;;;;;;;5079156;28;20453;-81
2023/06/17 09:06:45;;;;;;;28.97;19.43;;;;;;;;;;5091324;28;20971;-81
2023/06/17 09:09:13;;;;;;;26.43;18.23;;;;;;;;;;5089043;28;20442;-81
2023/06/17 09:11:39;;;;;;;25.27;18.23;;;;;;;;;;5081990;28;21022;-80
2023/06/17 09:14:05;;;;;;;28.20;18.73;;;;;;;;;;5090607;28;20452;-80
2023/06/17 09:16:33;;;;;;;23.50;18.43;;;;;;;;;;5080496;28;20471;-79
2023/06/17 09:19:00;;;;;;;31.23;17.73;;;;;;;;;;5081373;28;20466;-80
2023/06/17 09:21:27;;;;;;;25.97;18.97;;;;;;;;;;5077417;28;20510;-79
2023/06/17 09:23:56;;;;;;;27.43;16.67;;;;;;;;;;5083766;28;20450;-79
2023/06/17 09:26:28;;;;;;;29.33;19.60;;;;;;;;;;5078842;28;20471;-79
2023/06/17 09:28:59;;;;;;;19.87;16.10;;;;;;;;;;5071449;28;21001;-81
2023/06/17 09:31:26;;;;;;;22.77;16.63;;;;;;;;;;5076324;28;20984;-81
2023/06/17 09:33:52;;;;;;;24.00;18.00;;;;;;;;;;5076264;28;20455;-79
2023/06/17 09:36:19;;;;;;;24.37;18.00;;;;;;;;;;5074085;28;20470;-79
2023/06/17 09:38:46;;;;;;;27.97;19.23;;;;;;;;;;5077997;28;20818;-79
2023/06/17 09:41:16;;;;;;;23.60;17.87;;;;;;;;;;5081336;28;20465;-80
2023/06/17 09:43:48;;;;;;;22.90;17.83;;;;;;;;;;5080091;28;20450;-81
2023/06/17 09:46:17;;;;;;;25.50;18.70;;;;;;;;;;5074967;28;20536;-79
2023/06/17 09:48:43;;;;;;;25.60;18.57;;;;;;;;;;5075257;28;20565;-81
2023/06/17 09:51:12;;;;;;;26.90;19.40;;;;;;;;;;5089453;28;20470;-80
2023/06/17 09:53:38;;;;;;;25.57;19.93;;;;;;;;;;5074633;28;20449;-80
2023/06/17 09:56:05;;;;;;;22.50;17.10;;;;;;;;;;5074927;28;20466;-78
2023/06/17 09:58:31;;;;;;;29.33;17.53;;;;;;;;;;5075427;28;20543;-80
2023/06/17 10:01:04;;;;;;;31.20;18.87;;;;;;;;;;5082790;28;20471;-81
2023/06/17 10:03:32;;;;;;;24.30;17.50;;;;;;;;;;5081727;28;20444;-79
2023/06/17 10:06:01;;;;;;;22.43;17.37;;;;;;;;;;5073495;28;20498;-79
2023/06/17 10:08:28;;;;;;;22.93;17.67;;;;;;;;;;5073840;28;20467;-79
2023/06/17 10:10:55;;;;;;;24.10;17.80;;;;;;;;;;5077382;28;20478;-79
2023/06/17 10:13:22;;;;;;;25.20;16.83;;;;;;;;;;5084662;28;20482;-79
2023/06/17 10:15:50;;;;;;;25.40;17.50;;;;;;;;;;5080517;28;20842;-79
2023/06/17 10:18:18;;;;;;;25.07;17.10;;;;;;;;;;5076513;28;20475;-78
2023/06/17 10:20:45;;;;;;;23.10;17.27;;;;;;;;;;5073768;28;20466;-79
2023/06/17 10:23:12;;;;;;;22.37;15.87;;;;;;;;;;5069142;28;20439;-79
2023/06/17 10:25:40;;;;;;;26.53;18.53;;;;;;;;;;5074177;28;20455;-79
2023/06/17 10:28:06;;;;;;;23.27;15.40;;;;;;;;;;5076745;28;20479;-79
2023/06/17 10:30:34;;;;;;;27.47;16.23;;;;;;;;;;5084299;28;20446;-79
2023/06/17 10:33:02;;;;;;;21.23;16.87;;;;;;;;;;5084705;28;20553;-79
2023/06/17 10:35:39;;;;;;;22.47;16.57;;;;;;;;;;5082625;28;20803;-79
2023/06/17 10:38:07;;;;;;;19.97;15.17;;;;;;;;;;5079366;28;20478;-79
2023/06/17 10:40:36;;;;;;;22.60;16.03;;;;;;;;;;5074088;28;20486;-79
2023/06/17 10:43:19;;;;;;;18.83;16.43;;;;;;;;;;5072343;28;20964;-79
2023/06/17 10:45:49;;;;;;;22.30;16.07;;;;;;;;;;5079438;28;21015;-79
2023/06/17 10:48:16;;;;;;;19.43;15.33;;;;;;;;;;5088162;28;20503;-79
2023/06/17 10:50:46;;;;;;;17.73;14.37;;;;;;;;;;5087192;28;20979;-80
2023/06/17 10:53:15;;;;;;;22.40;17.77;;;;;;;;;;5085338;28;20984;-79
2023/06/17 10:55:41;;;;;;;20.37;15.80;;;;;;;;;;5074255;28;20525;-79
2023/06/17 10:58:08;;;;;;;19.87;15.33;;;;;;;;;;5075072;28;20486;-79
2023/06/17 11:00:35;;;;;;;20.23;16.13;;;;;;;;;;5079714;28;20463;-79
2023/06/17 11:03:01;;;;;;;22.57;16.17;;;;;;;;;;5071532;28;20451;-79
2023/06/17 11:05:34;;;;;;;20.80;14.93;;;;;;;;;;5083571;28;20470;-80
2023/06/17 11:08:02;;;;;;;27.23;15.67;;;;;;;;;;5079828;28;20570;-80
2023/06/17 11:10:28;;;;;;;18.70;14.40;;;;;;;;;;5079065;28;20450;-80
2023/06/17 11:12:55;;;;;;;18.00;13.50;;;;;;;;;;5079867;28;20542;-79
2023/06/17 11:15:22;;;;;;;19.20;13.90;;;;;;;;;;5076980;28;20482;-79
2023/06/17 11:17:48;;;;;;;20.93;17.03;;;;;;;;;;5069024;28;20483;-79
2023/06/17 11:20:15;;;;;;;18.13;13.80;;;;;;;;;;5075467;28;20933;-79
2023/06/17 11:22:42;;;;;;;18.73;13.53;;;;;;;;;;5076110;28;20470;-79
2023/06/17 11:25:10;;;;;;;16.60;14.30;;;;;;;;;;5074953;28;20462;-80
2023/06/17 11:27:38;;;;;;;18.23;15.10;;;;;;;;;;5072582;28;21031;-79
2023/06/17 11:30:08;;;;;;;21.70;15.07;;;;;;;;;;5076942;28;20544;-79
2023/06/17 11:32:35;;;;;;;16.10;13.23;;;;;;;;;;5076316;28;20478;-79
2023/06/17 11:35:03;;;;;;;18.63;13.00;;;;;;;;;;5084695;28;20960;-80
2023/06/17 11:37:30;;;;;;;19.17;15.10;;;;;;;;;;5083238;28;20950;-79
2023/06/17 11:39:57;;;;;;;17.27;13.90;;;;;;;;;;5080294;28;20459;-79
2023/06/17 11:42:24;;;;;;;20.73;14.40;;;;;;;;;;5078059;28;20471;-79
2023/06/17 11:44:51;;;;;;;20.90;14.90;;;;;;;;;;5075803;28;20949;-79
2023/06/17 11:47:17;;;;;;;26.30;15.03;;;;;;;;;;5083005;28;20832;-79
2023/06/17 11:49:44;;;;;;;17.17;13.17;;;;;;;;;;5081960;28;20935;-79
2023/06/17 11:52:11;;;;;;;19.23;12.13;;;;;;;;;;5080354;28;20524;-78
2023/06/17 11:54:45;;;;;;;15.20;13.40;;;;;;;;;;5085345;28;20458;-79
2023/06/17 11:57:11;;;;;;;18.33;13.53;;;;;;;;;;5080523;28;20548;-78
2023/06/17 11:59:39;;;;;;;15.73;12.53;;;;;;;;;;5081133;28;20454;-79
2023/06/17 12:02:06;;;;;;;16.17;13.00;;;;;;;;;;5084767;28;20478;-79
2023/06/17 12:04:33;;;;;;;16.47;12.83;;;;;;;;;;5081533;28;20447;-79
2023/06/17 12:06:59;;;;;;;17.57;12.70;;;;;;;;;;5080504;28;20470;-79
2023/06/17 12:09:26;;;;;;;15.70;13.23;;;;;;;;;;5083390;28;20443;-79
2023/06/17 12:11:54;;;;;;;14.93;12.17;;;;;;;;;;5078272;28;20478;-79
2023/06/17 12:14:21;;;;;;;16.00;11.70;;;;;;;;;;5074954;28;20454;-79
2023/06/17 12:16:48;;;;;;;14.70;11.30;;;;;;;;;;5079062;28;21007;-79
2023/06/17 12:19:20;;;;;;;16.90;12.77;;;;;;;;;;5081442;28;20955;-79
2023/06/17 12:21:46;;;;;;;16.10;11.33;;;;;;;;;;5087901;28;20475;-79
2023/06/17 12:24:14;;;;;;;13.70;12.30;;;;;;;;;;5079079;28;20465;-78
2023/06/17 12:26:41;;;;;;;16.00;12.83;;;;;;;;;;5082156;28;20474;-78
2023/06/17 12:29:08;;;;;;;14.97;11.87;;;;;;;;;;5086541;28;20463;-79
2023/06/17 12:31:35;;;;;;;17.70;11.70;;;;;;;;;;5086180;28;20473;-79
2023/06/17 12:34:03;;;;;;;14.20;12.20;;;;;;;;;;5070833;28;20494;-79
2023/06/17 12:36:31;;;;;;;15.33;12.27;;;;;;;;;;5071279;28;20520;-79
2023/06/17 12:39:00;;;;;;;15.23;11.50;;;;;;;;;;5073000;28;21008;-79
2023/06/17 12:41:26;;;;;;;16.77;10.90;;;;;;;;;;5083419;28;20987;-79
2023/06/17 12:43:53;;;;;;;14.40;11.50;;;;;;;;;;5073842;28;20435;-79
2023/06/17 12:46:20;;;;;;;15.10;12.50;;;;;;;;;;5085700;28;20466;-79
2023/06/17 12:48:50;;;;;;;12.90;11.00;;;;;;;;;;5081949;28;20463;-78
2023/06/17 12:51:18;;;;;;;12.47;11.10;;;;;;;;;;5078996;28;20470;-79
2023/06/17 12:53:46;;;;;;;12.60;10.73;;;;;;;;;;5079438;28;20494;-79
2023/06/17 12:56:12;;;;;;;17.30;12.47;;;;;;;;;;5081447;28;20470;-79
2023/06/17 12:58:39;;;;;;;12.73;10.63;;;;;;;;;;5080046;28;20483;-79
2023/06/17 13:01:06;;;;;;;14.40;10.80;;;;;;;;;;5082392;28;20461;-79
2023/06/17 13:03:32;;;;;;;12.13;10.63;;;;;;;;;;5075937;28;21018;-78
2023/06/17 13:05:59;;;;;;;14.03;10.57;;;;;;;;;;5077814;28;20991;-79
2023/06/17 13:08:27;;;;;;;14.03;11.53;;;;;;;;;;5076087;28;20467;-78
2023/06/17 13:10:53;;;;;;;14.23;10.47;;;;;;;;;;5074726;28;20994;-79
2023/06/17 13:13:19;;;;;;;13.37;10.87;;;;;;;;;;5079707;28;20515;-78
2023/06/17 13:15:47;;;;;;;14.00;10.47;;;;;;;;;;5079870;28;20471;-78
2023/06/17 13:18:13;;;;;;;11.27;9.50;;;;;;;;;;5075744;28;21003;-79
2023/06/17 13:20:40;;;;;;;15.43;10.90;;;;;;;;;;5082315;28;20516;-79
2023/06/17 13:23:06;;;;;;;15.83;10.50;;;;;;;;;;5082495;28;20438;-78
2023/06/17 13:25:35;;;;;;;11.13;10.03;;;;;;;;;;5078791;28;20974;-79
2023/06/17 13:28:01;;;;;;;12.20;9.87;;;;;;;;;;5076795;28;20986;-78
2023/06/17 13:30:28;;;;;;;11.90;10.67;;;;;;;;;;5075653;28;20470;-79
2023/06/17 13:32:54;;;;;;;11.47;10.27;;;;;;;;;;5064400;28;20540;-79
2023/06/17 13:35:21;;;;;;;10.77;9.63;;;;;;;;;;5081904;28;20447;-79
2023/06/17 13:37:47;;;;;;;21.23;10.70;;;;;;;;;;5080901;28;20474;-78
2023/06/17 13:40:15;;;;;;;15.73;10.10;;;;;;;;;;5078519;28;20446;-79
2023/06/17 13:42:42;;;;;;;12.53;10.93;;;;;;;;;;5073047;28;20471;-78
2023/06/17 13:45:10;;;;;;;14.70;11.37;;;;;;;;;;5068194;28;20453;-78
2023/06/17 13:47:36;;;;;;;14.50;10.50;;;;;;;;;;5076666;28;20482;-79
2023/06/17 13:50:03;;;;;;;12.30;9.93;;;;;;;;;;5076336;28;20470;-79
2023/06/17 13:52:30;;;;;;;15.00;10.63;;;;;;;;;;5077265;28;21085;-79
2023/06/17 13:54:57;;;;;;;13.47;11.20;;;;;;;;;;5081069;28;20439;-78
2023/06/17 13:57:24;;;;;;;11.63;10.40;;;;;;;;;;5072573;28;20479;-79
2023/06/17 13:59:51;;;;;;;13.53;10.30;;;;;;;;;;5055272;28;20463;-79
2023/06/17 14:02:18;;;;;;;12.37;9.03;;;;;;;;;;5074741;28;20471;-79
2023/06/17 14:04:44;;;;;;;11.53;9.27;;;;;;;;;;5080267;28;20952;-78
2023/06/17 14:07:10;;;;;;;20.47;10.80;;;;;;;;;;5082771;28;20480;-79
2023/06/17 14:09:36;;;;;;;11.47;10.03;;;;;;;;;;5077570;28;20443;-79
2023/06/17 14:12:03;;;;;;;12.20;10.70;;;;;;;;;;5072913;28;20463;-79
2023/06/17 14:14:30;;;;;;;12.37;9.10;;;;;;;;;;5071034;28;20493;-78
2023/06/17 14:16:59;;;;;;;10.70;9.60;;;;;;;;;;5076861;28;20557;-79